sensor_id;sensor_type;location;lat;lon;timestamp;P1;durP1;ratioP1;P2;durP2;ratioP2
74920;SDS011;63483;47.384;8.860;2024-01-10T00:01:26;46.47;;;17.40;;
74920;SDS011;63483;47.384;8.860;2024-01-10T00:03:55;44.70;;;16.95;;
74920;SDS011;63483;47.384;8.860;2024-01-10T00:06:20;45.95;;;17.45;;
74920;SDS011;63483;47.384;8.860;2024-01-10T00:08:46;47.40;;;16.57;;
74920;SDS011;63483;47.384;8.860;2024-01-10T00:11:11;42.33;;;15.57;;
74920;SDS011;63483;47.384;8.860;2024-01-10T00:13:36;45.43;;;17.03;;
74920;SDS011;63483;47.384;8.860;2024-01-10T00:16:02;43.88;;;16.10;;
74920;SDS011;63483;47.384;8.860;2024-01-10T00:18:27;44.23;;;16.23;;
74920;SDS011;63483;47.384;8.860;2024-01-10T00:20:53;46.83;;;18.30;;
74920;SDS011;63483;47.384;8.860;2024-01-10T00:23:21;46.10;;;17.55;;
74920;SDS011;63483;47.384;8.860;2024-01-10T00:25:47;41.85;;;17.75;;
74920;SDS011;63483;47.384;8.860;2024-01-10T00:28:13;49.60;;;18.07;;
74920;SDS011;63483;47.384;8.860;2024-01-10T00:30:39;44.30;;;18.70;;
74920;SDS011;63483;47.384;8.860;2024-01-10T00:33:05;48.03;;;17.37;;
74920;SDS011;63483;47.384;8.860;2024-01-10T00:35:30;56.17;;;20.27;;
74920;SDS011;63483;47.384;8.860;2024-01-10T00:37:56;55.83;;;21.70;;
74920;SDS011;63483;47.384;8.860;2024-01-10T00:40:22;55.10;;;19.42;;
74920;SDS011;63483;47.384;8.860;2024-01-10T00:42:47;40.35;;;15.60;;
74920;SDS011;63483;47.384;8.860;2024-01-10T00:45:13;46.33;;;18.07;;
74920;SDS011;63483;47.384;8.860;2024-01-10T00:47:38;46.05;;;17.75;;
74920;SDS011;63483;47.384;8.860;2024-01-10T00:50:03;49.75;;;18.30;;
74920;SDS011;63483;47.384;8.860;2024-01-10T00:52:29;46.80;;;18.47;;
74920;SDS011;63483;47.384;8.860;2024-01-10T00:54:55;47.57;;;16.97;;
74920;SDS011;63483;47.384;8.860;2024-01-10T00:57:20;46.80;;;17.55;;
74920;SDS011;63483;47.384;8.860;2024-01-10T00:59:45;48.47;;;17.10;;
74920;SDS011;63483;47.384;8.860;2024-01-10T01:02:10;49.27;;;18.20;;
74920;SDS011;63483;47.384;8.860;2024-01-10T01:04:36;43.47;;;16.57;;
74920;SDS011;63483;47.384;8.860;2024-01-10T01:07:01;49.53;;;18.83;;
74920;SDS011;63483;47.384;8.860;2024-01-10T01:09:26;46.70;;;18.20;;
74920;SDS011;63483;47.384;8.860;2024-01-10T01:11:52;48.73;;;19.30;;
74920;SDS011;63483;47.384;8.860;2024-01-10T01:14:17;43.60;;;16.27;;
74920;SDS011;63483;47.384;8.860;2024-01-10T01:16:42;43.78;;;16.55;;
74920;SDS011;63483;47.384;8.860;2024-01-10T01:19:08;41.17;;;15.67;;
74920;SDS011;63483;47.384;8.860;2024-01-10T01:21:33;47.97;;;19.33;;
74920;SDS011;63483;47.384;8.860;2024-01-10T01:23:58;45.77;;;16.20;;
74920;SDS011;63483;47.384;8.860;2024-01-10T01:26:24;44.27;;;16.87;;
74920;SDS011;63483;47.384;8.860;2024-01-10T01:28:49;43.27;;;16.17;;
74920;SDS011;63483;47.384;8.860;2024-01-10T01:31:14;45.87;;;15.83;;
74920;SDS011;63483;47.384;8.860;2024-01-10T01:33:39;47.60;;;17.23;;
74920;SDS011;63483;47.384;8.860;2024-01-10T01:36:05;43.83;;;16.83;;
74920;SDS011;63483;47.384;8.860;2024-01-10T01:38:31;40.58;;;15.38;;
74920;SDS011;63483;47.384;8.860;2024-01-10T01:40:56;56.00;;;20.27;;
74920;SDS011;63483;47.384;8.860;2024-01-10T01:43:23;46.45;;;17.15;;
74920;SDS011;63483;47.384;8.860;2024-01-10T01:45:50;42.90;;;16.42;;
74920;SDS011;63483;47.384;8.860;2024-01-10T01:48:19;49.47;;;17.20;;
74920;SDS011;63483;47.384;8.860;2024-01-10T01:50:45;44.80;;;17.38;;
74920;SDS011;63483;47.384;8.860;2024-01-10T01:53:15;45.15;;;17.13;;
74920;SDS011;63483;47.384;8.860;2024-01-10T01:55:42;42.28;;;15.55;;
74920;SDS011;63483;47.384;8.860;2024-01-10T01:58:08;43.17;;;16.02;;
74920;SDS011;63483;47.384;8.860;2024-01-10T02:00:34;45.60;;;16.60;;
74920;SDS011;63483;47.384;8.860;2024-01-10T02:03:00;41.50;;;16.40;;
74920;SDS011;63483;47.384;8.860;2024-01-10T02:05:26;46.72;;;18.38;;
74920;SDS011;63483;47.384;8.860;2024-01-10T02:07:51;49.20;;;17.93;;
74920;SDS011;63483;47.384;8.860;2024-01-10T02:10:17;49.07;;;18.23;;
74920;SDS011;63483;47.384;8.860;2024-01-10T02:12:44;43.85;;;16.52;;
74920;SDS011;63483;47.384;8.860;2024-01-10T02:15:10;43.08;;;16.73;;
74920;SDS011;63483;47.384;8.860;2024-01-10T02:17:35;46.70;;;17.57;;
74920;SDS011;63483;47.384;8.860;2024-01-10T02:22:35;41.00;;;14.88;;
74920;SDS011;63483;47.384;8.860;2024-01-10T02:25:01;39.27;;;15.23;;
74920;SDS011;63483;47.384;8.860;2024-01-10T02:27:26;39.40;;;15.30;;
74920;SDS011;63483;47.384;8.860;2024-01-10T02:29:52;43.75;;;15.90;;
74920;SDS011;63483;47.384;8.860;2024-01-10T02:32:19;44.07;;;16.37;;
74920;SDS011;63483;47.384;8.860;2024-01-10T02:34:44;45.17;;;16.97;;
74920;SDS011;63483;47.384;8.860;2024-01-10T02:37:10;56.72;;;17.58;;
74920;SDS011;63483;47.384;8.860;2024-01-10T02:39:35;46.83;;;16.63;;
74920;SDS011;63483;47.384;8.860;2024-01-10T02:42:00;49.87;;;18.33;;
74920;SDS011;63483;47.384;8.860;2024-01-10T02:44:26;47.77;;;17.77;;
74920;SDS011;63483;47.384;8.860;2024-01-10T02:46:53;44.80;;;16.45;;
74920;SDS011;63483;47.384;8.860;2024-01-10T02:49:18;44.17;;;17.73;;
74920;SDS011;63483;47.384;8.860;2024-01-10T02:51:43;43.27;;;16.40;;
74920;SDS011;63483;47.384;8.860;2024-01-10T02:54:09;44.53;;;15.57;;
74920;SDS011;63483;47.384;8.860;2024-01-10T02:56:34;46.07;;;16.67;;
74920;SDS011;63483;47.384;8.860;2024-01-10T02:58:59;43.17;;;16.57;;
74920;SDS011;63483;47.384;8.860;2024-01-10T03:01:25;45.20;;;17.80;;
74920;SDS011;63483;47.384;8.860;2024-01-10T03:03:50;45.97;;;17.07;;
74920;SDS011;63483;47.384;8.860;2024-01-10T03:06:15;44.33;;;16.57;;
74920;SDS011;63483;47.384;8.860;2024-01-10T03:08:40;44.43;;;16.10;;
74920;SDS011;63483;47.384;8.860;2024-01-10T03:11:06;44.20;;;16.17;;
74920;SDS011;63483;47.384;8.860;2024-01-10T03:13:31;37.50;;;15.60;;
74920;SDS011;63483;47.384;8.860;2024-01-10T03:15:56;44.37;;;17.67;;
74920;SDS011;63483;47.384;8.860;2024-01-10T03:18:22;44.20;;;16.17;;
74920;SDS011;63483;47.384;8.860;2024-01-10T03:20:48;46.10;;;16.75;;
74920;SDS011;63483;47.384;8.860;2024-01-10T03:23:14;40.90;;;16.07;;
74920;SDS011;63483;47.384;8.860;2024-01-10T03:25:39;44.50;;;16.90;;
74920;SDS011;63483;47.384;8.860;2024-01-10T03:28:04;49.13;;;17.40;;
74920;SDS011;63483;47.384;8.860;2024-01-10T03:30:30;44.05;;;17.05;;
74920;SDS011;63483;47.384;8.860;2024-01-10T03:32:55;42.93;;;15.70;;
74920;SDS011;63483;47.384;8.860;2024-01-10T03:35:21;43.67;;;15.90;;
74920;SDS011;63483;47.384;8.860;2024-01-10T03:37:46;41.63;;;16.30;;
74920;SDS011;63483;47.384;8.860;2024-01-10T03:40:11;43.43;;;15.83;;
74920;SDS011;63483;47.384;8.860;2024-01-10T03:42:37;43.10;;;16.15;;
74920;SDS011;63483;47.384;8.860;2024-01-10T03:45:03;42.90;;;16.83;;
74920;SDS011;63483;47.384;8.860;2024-01-10T03:47:28;49.08;;;17.73;;
74920;SDS011;63483;47.384;8.860;2024-01-10T03:49:54;43.80;;;15.65;;
74920;SDS011;63483;47.384;8.860;2024-01-10T03:52:19;40.53;;;15.53;;
74920;SDS011;63483;47.384;8.860;2024-01-10T03:54:44;44.40;;;18.33;;
74920;SDS011;63483;47.384;8.860;2024-01-10T03:57:10;45.30;;;18.47;;
74920;SDS011;63483;47.384;8.860;2024-01-10T03:59:35;51.47;;;17.40;;
74920;SDS011;63483;47.384;8.860;2024-01-10T04:02:00;50.67;;;16.70;;
74920;SDS011;63483;47.384;8.860;2024-01-10T04:04:26;45.25;;;17.63;;
74920;SDS011;63483;47.384;8.860;2024-01-10T04:06:52;46.93;;;17.97;;
74920;SDS011;63483;47.384;8.860;2024-01-10T04:09:17;43.47;;;17.13;;
74920;SDS011;63483;47.384;8.860;2024-01-10T04:11:42;43.30;;;16.83;;
74920;SDS011;63483;47.384;8.860;2024-01-10T04:14:08;40.83;;;16.07;;
74920;SDS011;63483;47.384;8.860;2024-01-10T04:16:33;41.40;;;14.90;;
74920;SDS011;63483;47.384;8.860;2024-01-10T04:18:58;38.05;;;14.30;;
74920;SDS011;63483;47.384;8.860;2024-01-10T04:21:24;44.37;;;15.67;;
74920;SDS011;63483;47.384;8.860;2024-01-10T04:23:49;41.70;;;14.93;;
74920;SDS011;63483;47.384;8.860;2024-01-10T04:26:16;45.75;;;15.88;;
74920;SDS011;63483;47.384;8.860;2024-01-10T04:28:42;40.10;;;15.70;;
74920;SDS011;63483;47.384;8.860;2024-01-10T04:31:07;36.03;;;14.40;;
74920;SDS011;63483;47.384;8.860;2024-01-10T04:33:32;39.17;;;16.57;;
74920;SDS011;63483;47.384;8.860;2024-01-10T04:35:58;46.40;;;17.07;;
74920;SDS011;63483;47.384;8.860;2024-01-10T04:38:23;45.00;;;17.33;;
74920;SDS011;63483;47.384;8.860;2024-01-10T04:40:51;38.78;;;16.83;;
74920;SDS011;63483;47.384;8.860;2024-01-10T04:43:16;39.73;;;15.43;;
74920;SDS011;63483;47.384;8.860;2024-01-10T04:45:42;41.00;;;14.77;;
74920;SDS011;63483;47.384;8.860;2024-01-10T04:48:07;43.23;;;16.43;;
74920;SDS011;63483;47.384;8.860;2024-01-10T04:50:32;40.60;;;14.97;;
74920;SDS011;63483;47.384;8.860;2024-01-10T04:52:57;44.17;;;15.87;;
74920;SDS011;63483;47.384;8.860;2024-01-10T04:55:23;41.37;;;15.63;;
74920;SDS011;63483;47.384;8.860;2024-01-10T04:57:48;40.73;;;14.87;;
74920;SDS011;63483;47.384;8.860;2024-01-10T05:00:13;41.83;;;14.47;;
74920;SDS011;63483;47.384;8.860;2024-01-10T05:02:39;43.72;;;15.38;;
74920;SDS011;63483;47.384;8.860;2024-01-10T05:05:05;40.27;;;15.73;;
74920;SDS011;63483;47.384;8.860;2024-01-10T05:07:31;37.70;;;14.30;;
74920;SDS011;63483;47.384;8.860;2024-01-10T05:09:56;39.43;;;15.27;;
74920;SDS011;63483;47.384;8.860;2024-01-10T05:12:22;40.93;;;15.33;;
74920;SDS011;63483;47.384;8.860;2024-01-10T05:14:47;43.43;;;16.63;;
74920;SDS011;63483;47.384;8.860;2024-01-10T05:17:12;42.33;;;17.63;;
74920;SDS011;63483;47.384;8.860;2024-01-10T05:19:38;43.00;;;17.63;;
74920;SDS011;63483;47.384;8.860;2024-01-10T05:22:03;44.22;;;16.73;;
74920;SDS011;63483;47.384;8.860;2024-01-10T05:24:29;46.93;;;18.00;;
74920;SDS011;63483;47.384;8.860;2024-01-10T05:26:54;48.83;;;18.13;;
74920;SDS011;63483;47.384;8.860;2024-01-10T05:29:20;41.57;;;15.03;;
74920;SDS011;63483;47.384;8.860;2024-01-10T05:31:47;46.50;;;16.75;;
74920;SDS011;63483;47.384;8.860;2024-01-10T05:34:12;45.20;;;16.53;;
74920;SDS011;63483;47.384;8.860;2024-01-10T05:36:38;40.97;;;14.40;;
74920;SDS011;63483;47.384;8.860;2024-01-10T05:39:03;42.80;;;15.30;;
74920;SDS011;63483;47.384;8.860;2024-01-10T05:41:29;43.93;;;15.43;;
74920;SDS011;63483;47.384;8.860;2024-01-10T05:43:54;42.50;;;15.23;;
74920;SDS011;63483;47.384;8.860;2024-01-10T05:46:20;43.97;;;16.38;;
74920;SDS011;63483;47.384;8.860;2024-01-10T05:48:45;42.22;;;17.15;;
74920;SDS011;63483;47.384;8.860;2024-01-10T05:51:11;45.40;;;16.73;;
74920;SDS011;63483;47.384;8.860;2024-01-10T05:53:37;43.58;;;16.35;;
74920;SDS011;63483;47.384;8.860;2024-01-10T05:56:02;41.10;;;16.63;;
74920;SDS011;63483;47.384;8.860;2024-01-10T05:58:28;42.97;;;15.32;;
74920;SDS011;63483;47.384;8.860;2024-01-10T06:00:53;47.27;;;17.60;;
74920;SDS011;63483;47.384;8.860;2024-01-10T06:03:20;42.90;;;15.40;;
74920;SDS011;63483;47.384;8.860;2024-01-10T06:05:45;57.77;;;18.00;;
74920;SDS011;63483;47.384;8.860;2024-01-10T06:08:10;49.50;;;18.73;;
74920;SDS011;63483;47.384;8.860;2024-01-10T06:10:36;47.10;;;18.00;;
74920;SDS011;63483;47.384;8.860;2024-01-10T06:13:01;39.13;;;15.77;;
74920;SDS011;63483;47.384;8.860;2024-01-10T06:15:26;47.43;;;17.57;;
74920;SDS011;63483;47.384;8.860;2024-01-10T06:17:52;40.42;;;16.75;;
74920;SDS011;63483;47.384;8.860;2024-01-10T06:20:17;38.27;;;15.70;;
74920;SDS011;63483;47.384;8.860;2024-01-10T06:22:43;43.15;;;15.77;;
74920;SDS011;63483;47.384;8.860;2024-01-10T06:25:08;47.17;;;18.37;;
74920;SDS011;63483;47.384;8.860;2024-01-10T06:27:34;47.40;;;17.53;;
74920;SDS011;63483;47.384;8.860;2024-01-10T06:29:59;44.13;;;16.87;;
74920;SDS011;63483;47.384;8.860;2024-01-10T06:32:24;41.27;;;15.27;;
74920;SDS011;63483;47.384;8.860;2024-01-10T06:34:50;45.92;;;17.58;;
74920;SDS011;63483;47.384;8.860;2024-01-10T06:37:16;43.23;;;15.93;;
74920;SDS011;63483;47.384;8.860;2024-01-10T06:39:41;38.00;;;14.90;;
74920;SDS011;63483;47.384;8.860;2024-01-10T06:42:06;37.37;;;15.17;;
74920;SDS011;63483;47.384;8.860;2024-01-10T06:44:33;41.70;;;16.85;;
74920;SDS011;63483;47.384;8.860;2024-01-10T06:46:58;38.97;;;14.80;;
74920;SDS011;63483;47.384;8.860;2024-01-10T06:49:24;44.93;;;16.90;;
74920;SDS011;63483;47.384;8.860;2024-01-10T06:51:49;42.63;;;15.43;;
74920;SDS011;63483;47.384;8.860;2024-01-10T06:54:14;42.87;;;15.60;;
74920;SDS011;63483;47.384;8.860;2024-01-10T06:56:40;45.33;;;16.83;;
74920;SDS011;63483;47.384;8.860;2024-01-10T06:59:06;41.10;;;16.23;;
74920;SDS011;63483;47.384;8.860;2024-01-10T07:01:31;41.60;;;16.00;;
74920;SDS011;63483;47.384;8.860;2024-01-10T07:03:57;42.97;;;15.83;;
74920;SDS011;63483;47.384;8.860;2024-01-10T07:06:22;60.30;;;22.73;;
74920;SDS011;63483;47.384;8.860;2024-01-10T07:08:48;44.53;;;16.10;;
74920;SDS011;63483;47.384;8.860;2024-01-10T07:11:14;39.53;;;15.05;;
74920;SDS011;63483;47.384;8.860;2024-01-10T07:13:40;42.63;;;16.90;;
74920;SDS011;63483;47.384;8.860;2024-01-10T07:16:06;41.47;;;16.33;;
74920;SDS011;63483;47.384;8.860;2024-01-10T07:18:32;36.63;;;15.00;;
74920;SDS011;63483;47.384;8.860;2024-01-10T07:20:57;33.30;;;13.13;;
74920;SDS011;63483;47.384;8.860;2024-01-10T07:23:23;38.27;;;15.77;;
74920;SDS011;63483;47.384;8.860;2024-01-10T07:25:48;38.77;;;15.67;;
74920;SDS011;63483;47.384;8.860;2024-01-10T07:28:14;49.50;;;19.20;;
74920;SDS011;63483;47.384;8.860;2024-01-10T07:30:40;41.70;;;15.60;;
74920;SDS011;63483;47.384;8.860;2024-01-10T07:33:05;40.77;;;16.00;;
74920;SDS011;63483;47.384;8.860;2024-01-10T07:35:32;45.75;;;17.92;;
74920;SDS011;63483;47.384;8.860;2024-01-10T07:37:57;42.93;;;15.23;;
74920;SDS011;63483;47.384;8.860;2024-01-10T07:40:22;41.80;;;16.93;;
74920;SDS011;63483;47.384;8.860;2024-01-10T07:42:48;41.60;;;14.97;;
74920;SDS011;63483;47.384;8.860;2024-01-10T07:45:13;43.53;;;18.17;;
74920;SDS011;63483;47.384;8.860;2024-01-10T07:47:38;35.70;;;14.57;;
74920;SDS011;63483;47.384;8.860;2024-01-10T07:50:07;36.90;;;14.98;;
74920;SDS011;63483;47.384;8.860;2024-01-10T07:52:33;41.33;;;16.33;;
74920;SDS011;63483;47.384;8.860;2024-01-10T07:54:59;44.03;;;17.80;;
74920;SDS011;63483;47.384;8.860;2024-01-10T07:57:25;40.83;;;16.27;;
74920;SDS011;63483;47.384;8.860;2024-01-10T07:59:51;46.03;;;16.98;;
74920;SDS011;63483;47.384;8.860;2024-01-10T08:02:17;46.87;;;18.27;;
74920;SDS011;63483;47.384;8.860;2024-01-10T08:04:42;38.87;;;16.80;;
74920;SDS011;63483;47.384;8.860;2024-01-10T08:07:08;44.00;;;17.57;;
74920;SDS011;63483;47.384;8.860;2024-01-10T08:09:33;43.20;;;17.87;;
74920;SDS011;63483;47.384;8.860;2024-01-10T08:11:58;50.28;;;17.48;;
74920;SDS011;63483;47.384;8.860;2024-01-10T08:14:24;44.07;;;17.67;;
74920;SDS011;63483;47.384;8.860;2024-01-10T08:16:49;42.67;;;16.40;;
74920;SDS011;63483;47.384;8.860;2024-01-10T08:19:18;41.25;;;17.30;;
74920;SDS011;63483;47.384;8.860;2024-01-10T08:21:43;38.50;;;16.30;;
74920;SDS011;63483;47.384;8.860;2024-01-10T08:24:08;39.30;;;16.23;;
74920;SDS011;63483;47.384;8.860;2024-01-10T08:26:34;42.67;;;17.97;;
74920;SDS011;63483;47.384;8.860;2024-01-10T08:28:59;42.70;;;16.63;;
74920;SDS011;63483;47.384;8.860;2024-01-10T08:31:24;43.53;;;18.23;;
74920;SDS011;63483;47.384;8.860;2024-01-10T08:33:51;41.42;;;17.65;;
74920;SDS011;63483;47.384;8.860;2024-01-10T08:36:17;44.77;;;18.17;;
74920;SDS011;63483;47.384;8.860;2024-01-10T08:38:42;45.50;;;17.37;;
74920;SDS011;63483;47.384;8.860;2024-01-10T08:41:08;43.58;;;16.77;;
74920;SDS011;63483;47.384;8.860;2024-01-10T08:43:36;42.13;;;17.63;;
74920;SDS011;63483;47.384;8.860;2024-01-10T08:46:01;40.67;;;16.77;;
74920;SDS011;63483;47.384;8.860;2024-01-10T08:48:26;38.80;;;16.07;;
74920;SDS011;63483;47.384;8.860;2024-01-10T08:50:52;42.05;;;17.08;;
74920;SDS011;63483;47.384;8.860;2024-01-10T08:53:21;43.03;;;15.57;;
74920;SDS011;63483;47.384;8.860;2024-01-10T08:55:46;43.63;;;16.42;;
74920;SDS011;63483;47.384;8.860;2024-01-10T08:58:12;42.00;;;15.70;;
74920;SDS011;63483;47.384;8.860;2024-01-10T09:00:37;38.10;;;15.33;;
74920;SDS011;63483;47.384;8.860;2024-01-10T09:03:02;43.23;;;16.80;;
74920;SDS011;63483;47.384;8.860;2024-01-10T09:05:28;44.22;;;17.67;;
74920;SDS011;63483;47.384;8.860;2024-01-10T09:07:53;46.40;;;17.77;;
74920;SDS011;63483;47.384;8.860;2024-01-10T09:10:19;40.87;;;16.70;;
74920;SDS011;63483;47.384;8.860;2024-01-10T09:12:46;42.45;;;18.02;;
74920;SDS011;63483;47.384;8.860;2024-01-10T09:15:12;43.58;;;17.80;;
74920;SDS011;63483;47.384;8.860;2024-01-10T09:17:39;48.33;;;19.50;;
74920;SDS011;63483;47.384;8.860;2024-01-10T09:20:07;48.25;;;18.75;;
74920;SDS011;63483;47.384;8.860;2024-01-10T09:22:33;47.30;;;18.85;;
74920;SDS011;63483;47.384;8.860;2024-01-10T09:24:58;38.13;;;15.40;;
74920;SDS011;63483;47.384;8.860;2024-01-10T09:27:28;42.88;;;16.75;;
74920;SDS011;63483;47.384;8.860;2024-01-10T09:29:54;46.40;;;18.13;;
74920;SDS011;63483;47.384;8.860;2024-01-10T09:32:22;39.70;;;16.33;;
74920;SDS011;63483;47.384;8.860;2024-01-10T09:34:47;47.50;;;18.45;;
74920;SDS011;63483;47.384;8.860;2024-01-10T09:37:13;42.83;;;18.20;;
74920;SDS011;63483;47.384;8.860;2024-01-10T09:39:38;43.33;;;16.65;;
74920;SDS011;63483;47.384;8.860;2024-01-10T09:42:04;42.58;;;16.27;;
74920;SDS011;63483;47.384;8.860;2024-01-10T09:44:30;41.90;;;18.20;;
74920;SDS011;63483;47.384;8.860;2024-01-10T09:46:55;42.53;;;17.67;;
74920;SDS011;63483;47.384;8.860;2024-01-10T09:49:21;38.93;;;15.10;;
74920;SDS011;63483;47.384;8.860;2024-01-10T09:51:47;42.72;;;16.92;;
74920;SDS011;63483;47.384;8.860;2024-01-10T09:54:13;43.90;;;16.88;;
74920;SDS011;63483;47.384;8.860;2024-01-10T09:56:44;43.57;;;17.63;;
74920;SDS011;63483;47.384;8.860;2024-01-10T09:59:10;38.08;;;15.23;;
74920;SDS011;63483;47.384;8.860;2024-01-10T10:01:38;43.23;;;16.67;;
74920;SDS011;63483;47.384;8.860;2024-01-10T10:04:04;36.20;;;16.17;;
74920;SDS011;63483;47.384;8.860;2024-01-10T10:06:32;44.30;;;17.38;;
74920;SDS011;63483;47.384;8.860;2024-01-10T10:08:59;37.63;;;15.65;;
74920;SDS011;63483;47.384;8.860;2024-01-10T10:11:24;49.38;;;18.67;;
74920;SDS011;63483;47.384;8.860;2024-01-10T10:13:49;46.00;;;17.52;;
74920;SDS011;63483;47.384;8.860;2024-01-10T10:16:15;44.40;;;18.07;;
74920;SDS011;63483;47.384;8.860;2024-01-10T10:18:48;46.00;;;18.48;;
74920;SDS011;63483;47.384;8.860;2024-01-10T10:21:14;45.38;;;18.45;;
74920;SDS011;63483;47.384;8.860;2024-01-10T10:23:41;44.72;;;17.88;;
74920;SDS011;63483;47.384;8.860;2024-01-10T10:26:14;45.10;;;16.95;;
74920;SDS011;63483;47.384;8.860;2024-01-10T10:28:47;46.42;;;19.45;;
74920;SDS011;63483;47.384;8.860;2024-01-10T10:31:13;44.83;;;18.57;;
74920;SDS011;63483;47.384;8.860;2024-01-10T10:33:40;46.30;;;19.42;;
74920;SDS011;63483;47.384;8.860;2024-01-10T10:36:06;47.58;;;18.48;;
74920;SDS011;63483;47.384;8.860;2024-01-10T10:38:31;42.60;;;18.10;;
74920;SDS011;63483;47.384;8.860;2024-01-10T10:40:58;46.97;;;17.33;;
74920;SDS011;63483;47.384;8.860;2024-01-10T10:43:24;48.03;;;18.92;;
74920;SDS011;63483;47.384;8.860;2024-01-10T10:45:50;47.55;;;18.02;;
74920;SDS011;63483;47.384;8.860;2024-01-10T10:48:17;42.65;;;16.35;;
74920;SDS011;63483;47.384;8.860;2024-01-10T10:50:48;45.00;;;16.67;;
74920;SDS011;63483;47.384;8.860;2024-01-10T10:53:20;48.00;;;16.63;;
74920;SDS011;63483;47.384;8.860;2024-01-10T10:55:47;44.85;;;17.50;;
74920;SDS011;63483;47.384;8.860;2024-01-10T10:58:14;48.80;;;18.63;;
74920;SDS011;63483;47.384;8.860;2024-01-10T11:00:40;51.67;;;19.03;;
74920;SDS011;63483;47.384;8.860;2024-01-10T11:03:07;44.17;;;18.23;;
74920;SDS011;63483;47.384;8.860;2024-01-10T11:05:35;44.50;;;17.55;;
74920;SDS011;63483;47.384;8.860;2024-01-10T11:08:04;47.77;;;16.97;;
74920;SDS011;63483;47.384;8.860;2024-01-10T11:10:33;46.80;;;18.15;;
74920;SDS011;63483;47.384;8.860;2024-01-10T11:16:09;43.70;;;16.60;;
74920;SDS011;63483;47.384;8.860;2024-01-10T11:18:58;46.03;;;17.25;;
74920;SDS011;63483;47.384;8.860;2024-01-10T11:24:06;41.13;;;16.02;;
74920;SDS011;63483;47.384;8.860;2024-01-10T11:26:34;48.05;;;17.85;;
74920;SDS011;63483;47.384;8.860;2024-01-10T11:29:02;42.67;;;16.50;;
74920;SDS011;63483;47.384;8.860;2024-01-10T11:31:30;46.83;;;18.98;;
74920;SDS011;63483;47.384;8.860;2024-01-10T11:33:57;50.67;;;18.07;;
74920;SDS011;63483;47.384;8.860;2024-01-10T11:36:23;46.85;;;17.52;;
74920;SDS011;63483;47.384;8.860;2024-01-10T11:46:35;39.50;;;14.97;;
74920;SDS011;63483;47.384;8.860;2024-01-10T11:49:21;45.30;;;17.45;;
74920;SDS011;63483;47.384;8.860;2024-01-10T11:51:49;43.80;;;15.73;;
74920;SDS011;63483;47.384;8.860;2024-01-10T11:57:00;45.22;;;15.25;;
74920;SDS011;63483;47.384;8.860;2024-01-10T11:59:26;40.27;;;15.57;;
74920;SDS011;63483;47.384;8.860;2024-01-10T12:01:51;36.97;;;13.88;;
74920;SDS011;63483;47.384;8.860;2024-01-10T12:04:17;42.87;;;16.17;;
74920;SDS011;63483;47.384;8.860;2024-01-10T12:06:44;42.25;;;16.98;;
74920;SDS011;63483;47.384;8.860;2024-01-10T12:09:10;46.05;;;16.95;;
74920;SDS011;63483;47.384;8.860;2024-01-10T12:11:37;36.47;;;13.43;;
74920;SDS011;63483;47.384;8.860;2024-01-10T12:14:04;39.07;;;15.13;;
74920;SDS011;63483;47.384;8.860;2024-01-10T12:16:30;39.05;;;14.68;;
74920;SDS011;63483;47.384;8.860;2024-01-10T12:18:57;41.75;;;15.98;;
74920;SDS011;63483;47.384;8.860;2024-01-10T12:21:23;41.30;;;15.40;;
74920;SDS011;63483;47.384;8.860;2024-01-10T12:23:48;40.53;;;16.63;;
74920;SDS011;63483;47.384;8.860;2024-01-10T12:26:13;38.20;;;14.35;;
74920;SDS011;63483;47.384;8.860;2024-01-10T12:28:39;39.10;;;14.23;;
74920;SDS011;63483;47.384;8.860;2024-01-10T12:31:07;39.20;;;16.27;;
74920;SDS011;63483;47.384;8.860;2024-01-10T12:33:33;39.40;;;14.50;;
74920;SDS011;63483;47.384;8.860;2024-01-10T12:36:17;42.05;;;15.23;;
74920;SDS011;63483;47.384;8.860;2024-01-10T12:38:43;27.30;;;9.45;;
74920;SDS011;63483;47.384;8.860;2024-01-10T12:41:12;41.50;;;14.77;;
74920;SDS011;63483;47.384;8.860;2024-01-10T12:43:40;40.95;;;15.30;;
74920;SDS011;63483;47.384;8.860;2024-01-10T12:46:12;37.45;;;13.50;;
74920;SDS011;63483;47.384;8.860;2024-01-10T12:48:38;42.70;;;15.48;;
74920;SDS011;63483;47.384;8.860;2024-01-10T12:51:09;40.50;;;14.77;;
74920;SDS011;63483;47.384;8.860;2024-01-10T12:53:42;37.78;;;12.85;;
74920;SDS011;63483;47.384;8.860;2024-01-10T12:56:09;32.70;;;13.73;;
74920;SDS011;63483;47.384;8.860;2024-01-10T12:58:39;41.90;;;15.10;;
74920;SDS011;63483;47.384;8.860;2024-01-10T13:01:07;38.33;;;14.07;;
74920;SDS011;63483;47.384;8.860;2024-01-10T13:03:33;36.90;;;13.60;;
74920;SDS011;63483;47.384;8.860;2024-01-10T13:05:58;41.70;;;15.63;;
74920;SDS011;63483;47.384;8.860;2024-01-10T13:08:24;38.47;;;14.07;;
74920;SDS011;63483;47.384;8.860;2024-01-10T13:10:49;36.43;;;14.07;;
74920;SDS011;63483;47.384;8.860;2024-01-10T13:13:15;39.67;;;13.10;;
74920;SDS011;63483;47.384;8.860;2024-01-10T13:15:42;35.28;;;13.77;;
74920;SDS011;63483;47.384;8.860;2024-01-10T13:18:08;37.88;;;14.48;;
74920;SDS011;63483;47.384;8.860;2024-01-10T13:20:37;37.08;;;14.23;;
74920;SDS011;63483;47.384;8.860;2024-01-10T13:23:05;37.75;;;14.82;;
74920;SDS011;63483;47.384;8.860;2024-01-10T13:25:31;35.63;;;13.00;;
74920;SDS011;63483;47.384;8.860;2024-01-10T13:27:56;37.33;;;13.88;;
74920;SDS011;63483;47.384;8.860;2024-01-10T13:30:22;36.97;;;14.48;;
74920;SDS011;63483;47.384;8.860;2024-01-10T13:32:48;32.47;;;12.20;;
74920;SDS011;63483;47.384;8.860;2024-01-10T13:35:14;32.27;;;12.77;;
74920;SDS011;63483;47.384;8.860;2024-01-10T13:37:41;35.95;;;14.00;;
74920;SDS011;63483;47.384;8.860;2024-01-10T13:40:07;33.17;;;12.65;;
74920;SDS011;63483;47.384;8.860;2024-01-10T13:42:34;37.40;;;13.40;;
74920;SDS011;63483;47.384;8.860;2024-01-10T13:45:00;34.47;;;12.70;;
74920;SDS011;63483;47.384;8.860;2024-01-10T13:47:25;33.60;;;13.43;;
74920;SDS011;63483;47.384;8.860;2024-01-10T13:49:51;31.60;;;12.30;;
74920;SDS011;63483;47.384;8.860;2024-01-10T13:52:17;36.13;;;13.23;;
74920;SDS011;63483;47.384;8.860;2024-01-10T13:54:43;30.17;;;12.93;;
74920;SDS011;63483;47.384;8.860;2024-01-10T13:57:08;37.47;;;13.57;;
74920;SDS011;63483;47.384;8.860;2024-01-10T13:59:33;31.77;;;13.57;;
74920;SDS011;63483;47.384;8.860;2024-01-10T14:01:59;32.77;;;12.30;;
74920;SDS011;63483;47.384;8.860;2024-01-10T14:04:24;35.53;;;13.27;;
74920;SDS011;63483;47.384;8.860;2024-01-10T14:06:50;30.63;;;12.75;;
74920;SDS011;63483;47.384;8.860;2024-01-10T14:09:15;30.97;;;13.57;;
74920;SDS011;63483;47.384;8.860;2024-01-10T14:11:42;32.67;;;13.70;;
74920;SDS011;63483;47.384;8.860;2024-01-10T14:14:13;35.17;;;12.97;;
74920;SDS011;63483;47.384;8.860;2024-01-10T14:16:39;30.95;;;12.05;;
74920;SDS011;63483;47.384;8.860;2024-01-10T14:19:05;30.63;;;12.17;;
74920;SDS011;63483;47.384;8.860;2024-01-10T14:21:30;37.75;;;12.85;;
74920;SDS011;63483;47.384;8.860;2024-01-10T14:23:57;33.10;;;13.50;;
74920;SDS011;63483;47.384;8.860;2024-01-10T14:26:22;27.87;;;12.50;;
74920;SDS011;63483;47.384;8.860;2024-01-10T14:28:47;33.73;;;13.47;;
74920;SDS011;63483;47.384;8.860;2024-01-10T14:31:13;32.47;;;12.97;;
74920;SDS011;63483;47.384;8.860;2024-01-10T14:33:39;39.92;;;15.00;;